sensor_id;sensor_type;location;lat;lon;timestamp;pressure;altitude;pressure_sealevel;temperature;humidity
29935;BME280;19905;53.370;-6.314;2023-06-10T00:00:08;100884.53;;;16.65;100.00
29935;BME280;19905;53.370;-6.314;2023-06-10T00:02:39;100882.50;;;16.59;100.00
29935;BME280;19905;53.370;-6.314;2023-06-10T00:05:10;100887.81;;;16.59;100.00
29935;BME280;19905;53.370;-6.314;2023-06-10T00:07:38;100876.00;;;16.62;100.00
29935;BME280;19905;53.370;-6.314;2023-06-10T00:10:10;100877.47;;;16.56;100.00
29935;BME280;19905;53.370;-6.314;2023-06-10T00:12:39;100883.63;;;16.57;100.00
29935;BME280;19905;53.370;-6.314;2023-06-10T00:15:10;100879.66;;;16.61;100.00
29935;BME280;19905;53.370;-6.314;2023-06-10T00:17:39;100873.59;;;16.68;100.00
29935;BME280;19905;53.370;-6.314;2023-06-10T00:20:09;100877.22;;;16.67;100.00
29935;BME280;19905;53.370;-6.314;2023-06-10T00:22:39;100878.50;;;16.73;100.00
29935;BME280;19905;53.370;-6.314;2023-06-10T00:25:10;100872.75;;;16.68;100.00
29935;BME280;19905;53.370;-6.314;2023-06-10T00:27:39;100874.16;;;16.62;100.00
29935;BME280;19905;53.370;-6.314;2023-06-10T00:30:09;100877.28;;;16.58;100.00
29935;BME280;19905;53.370;-6.314;2023-06-10T00:32:38;100878.13;;;16.58;100.00
29935;BME280;19905;53.370;-6.314;2023-06-10T00:35:07;100881.25;;;16.53;100.00
29935;BME280;19905;53.370;-6.314;2023-06-10T00:37:36;100886.06;;;16.50;100.00
29935;BME280;19905;53.370;-6.314;2023-06-10T00:40:06;100876.75;;;16.36;100.00
29935;BME280;19905;53.370;-6.314;2023-06-10T00:42:37;100876.66;;;16.28;100.00
29935;BME280;19905;53.370;-6.314;2023-06-10T00:45:07;100877.66;;;16.27;100.00
29935;BME280;19905;53.370;-6.314;2023-06-10T00:47:36;100874.47;;;16.23;100.00
29935;BME280;19905;53.370;-6.314;2023-06-10T00:50:06;100872.44;;;16.08;100.00
29935;BME280;19905;53.370;-6.314;2023-06-10T00:52:36;100876.03;;;16.16;100.00
29935;BME280;19905;53.370;-6.314;2023-06-10T00:55:05;100873.63;;;16.23;100.00
29935;BME280;19905;53.370;-6.314;2023-06-10T00:57:37;100869.03;;;16.15;100.00
29935;BME280;19905;53.370;-6.314;2023-06-10T01:00:07;100869.47;;;16.11;100.00
29935;BME280;19905;53.370;-6.314;2023-06-10T01:02:37;100870.03;;;16.14;100.00
29935;BME280;19905;53.370;-6.314;2023-06-10T01:05:06;100878.66;;;15.98;100.00
29935;BME280;19905;53.370;-6.314;2023-06-10T01:07:40;100878.19;;;16.03;100.00
29935;BME280;19905;53.370;-6.314;2023-06-10T01:10:17;100882.19;;;15.99;100.00
29935;BME280;19905;53.370;-6.314;2023-06-10T01:12:56;100882.47;;;15.96;100.00
29935;BME280;19905;53.370;-6.314;2023-06-10T01:15:30;100881.91;;;15.92;100.00
29935;BME280;19905;53.370;-6.314;2023-06-10T01:18:02;100889.47;;;15.97;100.00
29935;BME280;19905;53.370;-6.314;2023-06-10T01:20:32;100883.84;;;16.00;100.00
29935;BME280;19905;53.370;-6.314;2023-06-10T01:23:03;100881.75;;;15.94;100.00
29935;BME280;19905;53.370;-6.314;2023-06-10T01:25:32;100879.25;;;15.92;100.00
29935;BME280;19905;53.370;-6.314;2023-06-10T01:28:08;100880.84;;;15.85;100.00
29935;BME280;19905;53.370;-6.314;2023-06-10T01:30:43;100886.19;;;15.75;100.00
29935;BME280;19905;53.370;-6.314;2023-06-10T01:33:18;100886.19;;;15.75;100.00
29935;BME280;19905;53.370;-6.314;2023-06-10T01:35:51;100881.44;;;15.69;100.00
29935;BME280;19905;53.370;-6.314;2023-06-10T01:38:26;100881.19;;;15.63;100.00
29935;BME280;19905;53.370;-6.314;2023-06-10T01:40:55;100882.28;;;15.60;100.00
29935;BME280;19905;53.370;-6.314;2023-06-10T01:43:25;100884.28;;;15.68;100.00
29935;BME280;19905;53.370;-6.314;2023-06-10T01:45:53;100886.50;;;15.63;100.00
29935;BME280;19905;53.370;-6.314;2023-06-10T01:48:22;100882.59;;;15.67;100.00
29935;BME280;19905;53.370;-6.314;2023-06-10T01:50:50;100882.00;;;15.73;100.00
29935;BME280;19905;53.370;-6.314;2023-06-10T01:53:19;100876.91;;;15.80;100.00
29935;BME280;19905;53.370;-6.314;2023-06-10T01:55:49;100878.06;;;15.77;100.00
29935;BME280;19905;53.370;-6.314;2023-06-10T01:58:18;100879.19;;;15.74;100.00
29935;BME280;19905;53.370;-6.314;2023-06-10T02:00:47;100872.13;;;15.83;100.00
29935;BME280;19905;53.370;-6.314;2023-06-10T02:03:16;100864.44;;;15.80;100.00
29935;BME280;19905;53.370;-6.314;2023-06-10T02:05:45;100874.69;;;15.75;100.00
29935;BME280;19905;53.370;-6.314;2023-06-10T02:08:14;100882.72;;;15.65;100.00
29935;BME280;19905;53.370;-6.314;2023-06-10T02:10:42;100873.63;;;15.68;100.00
29935;BME280;19905;53.370;-6.314;2023-06-10T02:13:13;100890.56;;;15.57;100.00
29935;BME280;19905;53.370;-6.314;2023-06-10T02:15:42;100895.47;;;15.52;100.00
29935;BME280;19905;53.370;-6.314;2023-06-10T02:18:11;100895.25;;;15.45;100.00
29935;BME280;19905;53.370;-6.314;2023-06-10T02:20:40;100885.16;;;15.49;100.00
29935;BME280;19905;53.370;-6.314;2023-06-10T02:23:08;100901.25;;;15.47;100.00
29935;BME280;19905;53.370;-6.314;2023-06-10T02:25:37;100895.66;;;15.41;100.00
29935;BME280;19905;53.370;-6.314;2023-06-10T02:28:06;100889.22;;;15.34;100.00
29935;BME280;19905;53.370;-6.314;2023-06-10T02:30:39;100890.50;;;15.30;100.00
29935;BME280;19905;53.370;-6.314;2023-06-10T02:33:08;100897.78;;;15.28;100.00
29935;BME280;19905;53.370;-6.314;2023-06-10T02:35:38;100892.47;;;15.28;100.00
29935;BME280;19905;53.370;-6.314;2023-06-10T02:38:08;100894.16;;;15.29;100.00
29935;BME280;19905;53.370;-6.314;2023-06-10T02:40:37;100895.53;;;15.33;100.00
29935;BME280;19905;53.370;-6.314;2023-06-10T02:43:06;100892.03;;;15.42;100.00
29935;BME280;19905;53.370;-6.314;2023-06-10T02:45:36;100887.53;;;15.42;100.00
29935;BME280;19905;53.370;-6.314;2023-06-10T02:48:05;100901.28;;;15.38;100.00
29935;BME280;19905;53.370;-6.314;2023-06-10T02:50:34;100905.34;;;15.32;100.00
29935;BME280;19905;53.370;-6.314;2023-06-10T02:53:02;100909.25;;;15.38;100.00
29935;BME280;19905;53.370;-6.314;2023-06-10T02:55:31;100904.66;;;15.40;100.00
29935;BME280;19905;53.370;-6.314;2023-06-10T02:58:00;100904.91;;;15.37;100.00
29935;BME280;19905;53.370;-6.314;2023-06-10T03:00:30;100901.81;;;15.41;100.00
29935;BME280;19905;53.370;-6.314;2023-06-10T03:03:00;100906.31;;;15.41;100.00
29935;BME280;19905;53.370;-6.314;2023-06-10T03:05:30;100900.41;;;15.47;100.00
29935;BME280;19905;53.370;-6.314;2023-06-10T03:07:59;100904.63;;;15.49;100.00
29935;BME280;19905;53.370;-6.314;2023-06-10T03:10:28;100908.97;;;15.41;100.00
29935;BME280;19905;53.370;-6.314;2023-06-10T03:12:56;100904.75;;;15.48;100.00
29935;BME280;19905;53.370;-6.314;2023-06-10T03:15:25;100900.81;;;15.52;100.00
29935;BME280;19905;53.370;-6.314;2023-06-10T03:17:56;100904.22;;;15.35;100.00
29935;BME280;19905;53.370;-6.314;2023-06-10T03:20:26;100910.81;;;15.40;100.00
29935;BME280;19905;53.370;-6.314;2023-06-10T03:22:56;100910.09;;;15.38;100.00
29935;BME280;19905;53.370;-6.314;2023-06-10T03:25:24;100907.41;;;15.48;100.00
29935;BME280;19905;53.370;-6.314;2023-06-10T03:27:53;100907.28;;;15.49;100.00
29935;BME280;19905;53.370;-6.314;2023-06-10T03:30:22;100912.03;;;15.46;100.00
29935;BME280;19905;53.370;-6.314;2023-06-10T03:32:50;100904.06;;;15.46;100.00
29935;BME280;19905;53.370;-6.314;2023-06-10T03:35:19;100905.34;;;15.32;100.00
29935;BME280;19905;53.370;-6.314;2023-06-10T03:37:50;100904.63;;;15.30;100.00
29935;BME280;19905;53.370;-6.314;2023-06-10T03:40:19;100910.09;;;15.29;100.00
29935;BME280;19905;53.370;-6.314;2023-06-10T03:42:48;100911.81;;;15.20;100.00
29935;BME280;19905;53.370;-6.314;2023-06-10T03:45:16;100911.53;;;15.23;100.00
29935;BME280;19905;53.370;-6.314;2023-06-10T03:47:45;100912.63;;;15.30;100.00
29935;BME280;19905;53.370;-6.314;2023-06-10T03:50:15;100906.78;;;15.27;100.00
29935;BME280;19905;53.370;-6.314;2023-06-10T03:52:44;100905.50;;;15.31;100.00
29935;BME280;19905;53.370;-6.314;2023-06-10T03:55:15;100906.78;;;15.27;100.00
29935;BME280;19905;53.370;-6.314;2023-06-10T03:57:44;100920.19;;;15.25;100.00
29935;BME280;19905;53.370;-6.314;2023-06-10T04:00:14;100910.09;;;15.29;100.00
29935;BME280;19905;53.370;-6.314;2023-06-10T04:02:43;100898.88;;;15.35;100.00
29935;BME280;19905;53.370;-6.314;2023-06-10T04:05:16;100903.13;;;15.28;100.00
29935;BME280;19905;53.370;-6.314;2023-06-10T04:07:45;100905.50;;;15.21;100.00
29935;BME280;19905;53.370;-6.314;2023-06-10T04:10:17;100910.41;;;15.16;100.00
29935;BME280;19905;53.370;-6.314;2023-06-10T04:12:45;100900.59;;;15.16;100.00
29935;BME280;19905;53.370;-6.314;2023-06-10T04:15:14;100900.06;;;15.13;100.00
29935;BME280;19905;53.370;-6.314;2023-06-10T04:17:43;100900.06;;;15.13;100.00
29935;BME280;19905;53.370;-6.314;2023-06-10T04:20:12;100905.94;;;15.26;100.00
29935;BME280;19905;53.370;-6.314;2023-06-10T04:22:41;100897.22;;;15.24;100.00
29935;BME280;19905;53.370;-6.314;2023-06-10T04:25:11;100894.16;;;15.19;100.00
29935;BME280;19905;53.370;-6.314;2023-06-10T04:27:41;100897.09;;;15.25;100.00
29935;BME280;19905;53.370;-6.314;2023-06-10T04:30:11;100890.81;;;15.27;100.00
29935;BME280;19905;53.370;-6.314;2023-06-10T04:32:41;100889.66;;;15.29;100.00
29935;BME280;19905;53.370;-6.314;2023-06-10T04:35:11;100880.00;;;15.28;100.00
29935;BME280;19905;53.370;-6.314;2023-06-10T04:37:40;100893.28;;;15.38;100.00
29935;BME280;19905;53.370;-6.314;2023-06-10T04:40:10;100894.56;;;15.34;100.00
29935;BME280;19905;53.370;-6.314;2023-06-10T04:42:38;100892.59;;;15.36;100.00
29935;BME280;19905;53.370;-6.314;2023-06-10T04:45:09;100897.78;;;15.37;100.00
29935;BME280;19905;53.370;-6.314;2023-06-10T04:47:39;100894.53;;;15.43;100.00
29935;BME280;19905;53.370;-6.314;2023-06-10T04:50:08;100892.69;;;15.44;100.00
29935;BME280;19905;53.370;-6.314;2023-06-10T04:52:36;100897.22;;;15.34;100.00
29935;BME280;19905;53.370;-6.314;2023-06-10T04:55:06;100892.69;;;15.44;100.00
29935;BME280;19905;53.370;-6.314;2023-06-10T04:57:35;100899.72;;;15.45;100.00
29935;BME280;19905;53.370;-6.314;2023-06-10T05:00:05;100902.22;;;15.46;100.00
29935;BME280;19905;53.370;-6.314;2023-06-10T05:02:37;100897.94;;;15.36;100.00
29935;BME280;19905;53.370;-6.314;2023-06-10T05:05:06;100901.81;;;15.51;100.00
29935;BME280;19905;53.370;-6.314;2023-06-10T05:07:35;100900.13;;;15.50;100.00
29935;BME280;19905;53.370;-6.314;2023-06-10T05:10:05;100894.94;;;15.58;100.00
29935;BME280;19905;53.370;-6.314;2023-06-10T05:12:33;100893.63;;;15.62;100.00
29935;BME280;19905;53.370;-6.314;2023-06-10T05:15:02;100900.09;;;15.60;100.00
29935;BME280;19905;53.370;-6.314;2023-06-10T05:17:31;100905.16;;;15.63;100.00
29935;BME280;19905;53.370;-6.314;2023-06-10T05:20:01;100898.94;;;15.62;100.00
29935;BME280;19905;53.370;-6.314;2023-06-10T05:22:31;100901.38;;;15.56;100.00
29935;BME280;19905;53.370;-6.314;2023-06-10T05:24:59;100894.66;;;15.51;100.00
29935;BME280;19905;53.370;-6.314;2023-06-10T05:27:28;100898.59;;;15.47;100.00
29935;BME280;19905;53.370;-6.314;2023-06-10T05:29:56;100900.09;;;15.60;100.00
29935;BME280;19905;53.370;-6.314;2023-06-10T05:32:25;100900.09;;;15.60;100.00
29935;BME280;19905;53.370;-6.314;2023-06-10T05:34:54;100899.81;;;15.63;100.00
29935;BME280;19905;53.370;-6.314;2023-06-10T05:37:24;100901.38;;;15.56;100.00
29935;BME280;19905;53.370;-6.314;2023-06-10T05:39:53;100900.09;;;15.60;100.00
29935;BME280;19905;53.370;-6.314;2023-06-10T05:42:21;100897.88;;;15.55;100.00
29935;BME280;19905;53.370;-6.314;2023-06-10T05:44:49;100901.66;;;15.52;100.00
29935;BME280;19905;53.370;-6.314;2023-06-10T05:47:18;100903.88;;;15.57;100.00
29935;BME280;19905;53.370;-6.314;2023-06-10T05:49:47;100895.88;;;15.57;100.00
29935;BME280;19905;53.370;-6.314;2023-06-10T05:52:17;100896.03;;;15.65;100.00
29935;BME280;19905;53.370;-6.314;2023-06-10T05:54:47;100891.66;;;15.74;100.00
29935;BME280;19905;53.370;-6.314;2023-06-10T05:57:16;100896.16;;;15.73;100.00
29935;BME280;19905;53.370;-6.314;2023-06-10T05:59:45;100886.72;;;15.79;100.00
29935;BME280;19905;53.370;-6.314;2023-06-10T06:02:13;100886.59;;;15.81;100.00
29935;BME280;19905;53.370;-6.314;2023-06-10T06:04:42;100889.28;;;15.71;100.00
29935;BME280;19905;53.370;-6.314;2023-06-10T06:07:11;100892.66;;;15.73;100.00
29935;BME280;19905;53.370;-6.314;2023-06-10T06:09:40;100896.50;;;15.88;100.00
29935;BME280;19905;53.370;-6.314;2023-06-10T06:12:11;100896.19;;;16.01;100.00
29935;BME280;19905;53.370;-6.314;2023-06-10T06:14:40;100896.28;;;16.09;100.00
29935;BME280;19905;53.370;-6.314;2023-06-10T06:17:08;100895.69;;;16.15;100.00
29935;BME280;19905;53.370;-6.314;2023-06-10T06:19:37;100890.59;;;16.22;100.00
29935;BME280;19905;53.370;-6.314;2023-06-10T06:22:10;100888.00;;;16.30;100.00
29935;BME280;19905;53.370;-6.314;2023-06-10T06:24:39;100881.22;;;16.18;100.00
29935;BME280;19905;53.370;-6.314;2023-06-10T06:27:08;100880.84;;;16.31;100.00
29935;BME280;19905;53.370;-6.314;2023-06-10T06:29:39;100884.56;;;16.20;100.00
29935;BME280;19905;53.370;-6.314;2023-06-10T06:32:08;100878.88;;;16.33;100.00
29935;BME280;19905;53.370;-6.314;2023-06-10T06:34:39;100873.75;;;16.21;100.00
29935;BME280;19905;53.370;-6.314;2023-06-10T06:37:09;100880.78;;;16.22;100.00
29935;BME280;19905;53.370;-6.314;2023-06-10T06:39:38;100881.63;;;16.23;100.00
29935;BME280;19905;53.370;-6.314;2023-06-10T06:42:09;100878.13;;;16.22;100.00
29935;BME280;19905;53.370;-6.314;2023-06-10T06:44:41;100875.28;;;16.24;100.00
29935;BME280;19905;53.370;-6.314;2023-06-10T06:47:10;100880.16;;;16.29;100.00
29935;BME280;19905;53.370;-6.314;2023-06-10T06:49:39;100879.50;;;16.26;100.00
29935;BME280;19905;53.370;-6.314;2023-06-10T06:52:08;100880.63;;;16.24;100.00
29935;BME280;19905;53.370;-6.314;2023-06-10T06:54:37;100884.22;;;16.33;100.00
29935;BME280;19905;53.370;-6.314;2023-06-10T06:57:07;100877.06;;;16.33;100.00
29935;BME280;19905;53.370;-6.314;2023-06-10T06:59:36;100881.84;;;16.30;100.00
29935;BME280;19905;53.370;-6.314;2023-06-10T07:02:07;100890.31;;;16.43;100.00
29935;BME280;19905;53.370;-6.314;2023-06-10T07:04:36;100882.81;;;16.74;100.00
29935;BME280;19905;53.370;-6.314;2023-06-10T07:07:07;100881.66;;;16.76;100.00
29935;BME280;19905;53.370;-6.314;2023-06-10T07:09:37;100886.03;;;16.95;100.00
29935;BME280;19905;53.370;-6.314;2023-06-10T07:12:07;100876.03;;;16.97;100.00
29935;BME280;19905;53.370;-6.314;2023-06-10T07:14:37;100871.41;;;17.08;100.00
29935;BME280;19905;53.370;-6.314;2023-06-10T07:17:08;100871.03;;;17.20;100.00
29935;BME280;19905;53.370;-6.314;2023-06-10T07:19:37;100882.22;;;17.24;100.00
29935;BME280;19905;53.370;-6.314;2023-06-10T07:22:06;100878.03;;;17.47;100.00
29935;BME280;19905;53.370;-6.314;2023-06-10T07:24:36;100878.56;;;17.51;100.00
29935;BME280;19905;53.370;-6.314;2023-06-10T07:27:05;100875.84;;;17.69;100.00
29935;BME280;19905;53.370;-6.314;2023-06-10T07:29:35;100884.78;;;17.60;100.00
29935;BME280;19905;53.370;-6.314;2023-06-10T07:32:04;100888.56;;;17.49;100.00
29935;BME280;19905;53.370;-6.314;2023-06-10T07:34:34;100886.34;;;17.44;100.00
29935;BME280;19905;53.370;-6.314;2023-06-10T07:37:02;100886.50;;;17.69;100.00
29935;BME280;19905;53.370;-6.314;2023-06-10T07:39:32;100879.66;;;17.66;100.00
29935;BME280;19905;53.370;-6.314;2023-06-10T07:42:01;100883.78;;;17.61;100.00
29935;BME280;19905;53.370;-6.314;2023-06-10T07:44:30;100875.84;;;17.69;100.00
29935;BME280;19905;53.370;-6.314;2023-06-10T07:47:00;100877.97;;;17.65;100.00
29935;BME280;19905;53.370;-6.314;2023-06-10T07:49:30;100879.16;;;17.71;100.00
29935;BME280;19905;53.370;-6.314;2023-06-10T07:52:00;100887.50;;;17.68;100.00
29935;BME280;19905;53.370;-6.314;2023-06-10T07:54:34;100878.25;;;17.80;100.00
29935;BME280;19905;53.370;-6.314;2023-06-10T07:57:06;100886.59;;;17.59;100.00
29935;BME280;19905;53.370;-6.314;2023-06-10T07:59:38;100886.19;;;17.72;100.00
29935;BME280;19905;53.370;-6.314;2023-06-10T08:02:08;100875.25;;;17.83;100.00
29935;BME280;19905;53.370;-6.314;2023-06-10T08:15:34;100862.94;;;17.98;100.00
29935;BME280;19905;53.370;-6.314;2023-06-10T08:18:33;100875.97;;;17.93;100.00
29935;BME280;19905;53.370;-6.314;2023-06-10T08:25:13;100868.13;;;18.00;100.00
29935;BME280;19905;53.370;-6.314;2023-06-10T08:28:50;100873.88;;;18.21;100.00
29935;BME280;19905;53.370;-6.314;2023-06-10T08:35:34;100881.66;;;17.98;100.00
29935;BME280;19905;53.370;-6.314;2023-06-10T08:38:04;100879.50;;;18.02;100.00
29935;BME280;19905;53.370;-6.314;2023-06-10T08:40:34;100878.41;;;18.21;100.00
29935;BME280;19905;53.370;-6.314;2023-06-10T08:43:07;100881.25;;;18.19;100.00
29935;BME280;19905;53.370;-6.314;2023-06-10T08:45:42;100879.44;;;18.28;100.00
29935;BME280;19905;53.370;-6.314;2023-06-10T08:48:17;100876.78;;;18.44;100.00
29935;BME280;19905;53.370;-6.314;2023-06-10T08:50:50;100874.44;;;18.49;100.00
29935;BME280;19905;53.370;-6.314;2023-06-10T08:53:21;100877.47;;;18.54;100.00
29935;BME280;19905;53.370;-6.314;2023-06-10T08:56:01;100876.81;;;18.52;100.00
29935;BME280;19905;53.370;-6.314;2023-06-10T08:58:33;100876.13;;;18.42;100.00
29935;BME280;19905;53.370;-6.314;2023-06-10T09:01:09;100874.63;;;18.48;100.00
29935;BME280;19905;53.370;-6.314;2023-06-10T09:03:39;100870.78;;;18.42;100.00
29935;BME280;19905;53.370;-6.314;2023-06-10T09:06:13;100864.91;;;18.55;100.00
29935;BME280;19905;53.370;-6.314;2023-06-10T09:08:43;100867.00;;;18.69;100.00
29935;BME280;19905;53.370;-6.314;2023-06-10T09:11:11;100865.28;;;18.68;100.00
29935;BME280;19905;53.370;-6.314;2023-06-10T09:13:40;100873.13;;;18.62;100.00
29935;BME280;19905;53.370;-6.314;2023-06-10T09:16:09;100874.44;;;18.49;100.00
29935;BME280;19905;53.370;-6.314;2023-06-10T09:18:46;100873.94;;;18.46;100.00
29935;BME280;19905;53.370;-6.314;2023-06-10T09:21:26;100866.78;;;18.63;100.00
29935;BME280;19905;53.370;-6.314;2023-06-10T09:23:55;100869.16;;;18.90;100.00
29935;BME280;19905;53.370;-6.314;2023-06-10T09:26:28;100855.44;;;18.93;100.00
29935;BME280;19905;53.370;-6.314;2023-06-10T09:29:02;100859.59;;;18.63;100.00
29935;BME280;19905;53.370;-6.314;2023-06-10T09:31:32;100861.31;;;18.97;100.00
29935;BME280;19905;53.370;-6.314;2023-06-10T09:34:09;100871.50;;;19.01;100.00
29935;BME280;19905;53.370;-6.314;2023-06-10T09:36:39;100879.00;;;19.30;100.00
29935;BME280;19905;53.370;-6.314;2023-06-10T09:39:15;100882.53;;;19.15;100.00
29935;BME280;19905;53.370;-6.314;2023-06-10T09:41:45;100884.19;;;19.40;100.00
29935;BME280;19905;53.370;-6.314;2023-06-10T09:44:16;100874.09;;;19.67;100.00
29935;BME280;19905;53.370;-6.314;2023-06-10T09:46:47;100866.69;;;19.77;100.00
29935;BME280;19905;53.370;-6.314;2023-06-10T09:49:18;100870.78;;;19.48;100.00
29935;BME280;19905;53.370;-6.314;2023-06-10T09:51:52;100874.13;;;19.42;100.00
29935;BME280;19905;53.370;-6.314;2023-06-10T09:54:31;100870.44;;;19.43;100.00
29935;BME280;19905;53.370;-6.314;2023-06-10T09:57:07;100871.81;;;19.23;100.00
29935;BME280;19905;53.370;-6.314;2023-06-10T09:59:38;100867.06;;;19.66;100.00
29935;BME280;19905;53.370;-6.314;2023-06-10T10:02:13;100861.00;;;19.80;100.00
29935;BME280;19905;53.370;-6.314;2023-06-10T10:04:53;100857.00;;;19.68;100.00
29935;BME280;19905;53.370;-6.314;2023-06-10T10:07:28;100860.06;;;19.40;100.00
29935;BME280;19905;53.370;-6.314;2023-06-10T10:10:04;100862.06;;;19.46;100.00
29935;BME280;19905;53.370;-6.314;2023-06-10T10:12:38;100861.41;;;19.44;100.00
29935;BME280;19905;53.370;-6.314;2023-06-10T10:15:09;100850.50;;;19.38;100.00
29935;BME280;19905;53.370;-6.314;2023-06-10T10:17:46;100846.56;;;19.17;100.00
29935;BME280;19905;53.370;-6.314;2023-06-10T10:20:21;100855.47;;;19.01;100.00
29935;BME280;19905;53.370;-6.314;2023-06-10T10:22:56;100853.44;;;18.71;100.00
29935;BME280;19905;53.370;-6.314;2023-06-10T10:25:28;100841.06;;;18.86;100.00
29935;BME280;19905;53.370;-6.314;2023-06-10T10:28:05;100836.88;;;18.84;100.00
29935;BME280;19905;53.370;-6.314;2023-06-10T10:30:41;100836.56;;;18.78;100.00
29935;BME280;19905;53.370;-6.314;2023-06-10T10:33:18;100827.16;;;18.66;100.00
29935;BME280;19905;53.370;-6.314;2023-06-10T10:35:50;100823.47;;;18.59;100.00
29935;BME280;19905;53.370;-6.314;2023-06-10T10:38:21;100840.34;;;18.51;100.00
29935;BME280;19905;53.370;-6.314;2023-06-10T10:40:53;100852.19;;;18.33;100.00
29935;BME280;19905;53.370;-6.314;2023-06-10T10:43:28;100845.50;;;18.45;100.00
29935;BME280;19905;53.370;-6.314;2023-06-10T10:46:01;100843.69;;;18.45;100.00
29935;BME280;19905;53.370;-6.314;2023-06-10T10:48:37;100849.72;;;18.64;100.00
29935;BME280;19905;53.370;-6.314;2023-06-10T10:51:06;100846.41;;;18.78;100.00
29935;BME280;19905;53.370;-6.314;2023-06-10T10:53:39;100834.53;;;18.97;100.00
29935;BME280;19905;53.370;-6.314;2023-06-10T10:56:15;100819.94;;;19.16;100.00
29935;BME280;19905;53.370;-6.314;2023-06-10T10:59:03;100820.97;;;18.98;100.00
29935;BME280;19905;53.370;-6.314;2023-06-10T11:01:40;100831.69;;;18.90;100.00
29935;BME280;19905;53.370;-6.314;2023-06-10T11:04:18;100827.81;;;19.17;100.00
29935;BME280;19905;53.370;-6.314;2023-06-10T11:06:55;100828.13;;;19.30;100.00
29935;BME280;19905;53.370;-6.314;2023-06-10T11:09:36;100825.84;;;19.59;100.00
29935;BME280;19905;53.370;-6.314;2023-06-10T11:12:06;100826.34;;;19.70;100.00
29935;BME280;19905;53.370;-6.314;2023-06-10T11:14:36;100825.25;;;19.88;100.00
29935;BME280;19905;53.370;-6.314;2023-06-10T11:17:18;100819.22;;;19.94;100.00
29935;BME280;19905;53.370;-6.314;2023-06-10T11:19:48;100818.34;;;20.24;100.00
29935;BME280;19905;53.370;-6.314;2023-06-10T11:22:18;100814.66;;;20.25;100.00
29935;BME280;19905;53.370;-6.314;2023-06-10T11:24:51;100813.22;;;20.38;100.00
29935;BME280;19905;53.370;-6.314;2023-06-10T11:27:23;100807.91;;;20.29;100.00
29935;BME280;19905;53.370;-6.314;2023-06-10T11:30:00;100802.41;;;20.54;100.00
29935;BME280;19905;53.370;-6.314;2023-06-10T11:32:51;100791.66;;;20.77;100.00
29935;BME280;19905;53.370;-6.314;2023-06-10T11:35:23;100793.88;;;20.88;100.00
29935;BME280;19905;53.370;-6.314;2023-06-10T11:37:52;100787.53;;;20.89;100.00
29935;BME280;19905;53.370;-6.314;2023-06-10T11:40:22;100781.69;;;21.15;100.00
29935;BME280;19905;53.370;-6.314;2023-06-10T11:42:58;100785.59;;;21.13;100.00
29935;BME280;19905;53.370;-6.314;2023-06-10T11:45:27;100787.41;;;21.35;100.00
29935;BME280;19905;53.370;-6.314;2023-06-10T11:47:57;100788.72;;;21.16;100.00
29935;BME280;19905;53.370;-6.314;2023-06-10T11:50:36;100790.38;;;20.88;100.00
29935;BME280;19905;53.370;-6.314;2023-06-10T13:00:43;100795.72;;;21.55;100.00
29935;BME280;19905;53.370;-6.314;2023-06-10T13:03:55;100808.00;;;21.20;100.00
29935;BME280;19905;53.370;-6.314;2023-06-10T13:22:31;100789.88;;;20.69;100.00
29935;BME280;19905;53.370;-6.314;2023-06-10T13:28:43;100790.13;;;20.60;100.00
29935;BME280;19905;53.370;-6.314;2023-06-10T13:31:57;100801.94;;;20.42;100.00
29935;BME280;19905;53.370;-6.314;2023-06-10T14:11:16;100800.34;;;20.79;100.00
29935;BME280;19905;53.370;-6.314;2023-06-10T14:20:21;100791.72;;;20.46;100.00
29935;BME280;19905;53.370;-6.314;2023-06-10T14:35:43;100798.09;;;20.68;100.00
29935;BME280;19905;53.370;-6.314;2023-06-10T14:38:12;100794.94;;;20.64;100.00
29935;BME280;19905;53.370;-6.314;2023-06-10T14:40:40;100798.66;;;20.63;100.00
29935;BME280;19905;53.370;-6.314;2023-06-10T14:43:09;100809.09;;;20.58;100.00
29935;BME280;19905;53.370;-6.314;2023-06-10T14:45:38;100812.97;;;20.55;100.00
29935;BME280;19905;53.370;-6.314;2023-06-10T14:48:08;100816.28;;;20.35;100.00
29935;BME280;19905;53.370;-6.314;2023-06-10T14:50:37;100815.13;;;20.29;100.00
29935;BME280;19905;53.370;-6.314;2023-06-10T14:53:09;100824.69;;;20.00;100.00
29935;BME280;19905;53.370;-6.314;2023-06-10T14:55:37;100825.41;;;19.94;100.00
29935;BME280;19905;53.370;-6.314;2023-06-10T14:58:06;100831.63;;;19.87;100.00
29935;BME280;19905;53.370;-6.314;2023-06-10T15:00:35;100823.94;;;19.84;100.00
29935;BME280;19905;53.370;-6.314;2023-06-10T15:03:03;100827.88;;;19.65;100.00
29935;BME280;19905;53.370;-6.314;2023-06-10T15:05:32;100828.19;;;19.70;100.00
29935;BME280;19905;53.370;-6.314;2023-06-10T15:08:01;100843.34;;;19.38;100.00
29935;BME280;19905;53.370;-6.314;2023-06-10T15:10:31;100843.00;;;19.33;100.00
29935;BME280;19905;53.370;-6.314;2023-06-10T15:13:00;100842.88;;;19.10;100.00
29935;BME280;19905;53.370;-6.314;2023-06-10T15:15:28;100846.69;;;19.24;100.00
29935;BME280;19905;53.370;-6.314;2023-06-10T15:17:56;100846.72;;;19.16;100.00
29935;BME280;19905;53.370;-6.314;2023-06-10T15:20:25;100857.44;;;19.08;100.00
29935;BME280;19905;53.370;-6.314;2023-06-10T15:22:54;100848.03;;;19.36;100.00
29935;BME280;19905;53.370;-6.314;2023-06-10T15:25:22;100847.38;;;19.26;100.00
29935;BME280;19905;53.370;-6.314;2023-06-10T15:27:59;100846.91;;;19.06;100.00
29935;BME280;19905;53.370;-6.314;2023-06-10T15:30:29;100859.47;;;18.97;100.00
29935;BME280;19905;53.370;-6.314;2023-06-10T15:32:58;100859.97;;;18.93;100.00